createdAt,value
2023-03-05T00:01:08.894Z,100601.97
2023-03-05T00:04:13.820Z,100622.25
2023-03-05T00:07:16.835Z,100617.75
2023-03-05T00:10:21.716Z,100612.38
2023-03-05T00:13:24.895Z,100620.44
2023-03-05T00:16:29.482Z,100619.69
2023-03-05T00:19:35.322Z,100619.69
2023-03-05T00:22:38.326Z,100623.19
2023-03-05T00:25:42.368Z,100615.28
2023-03-05T00:28:53.029Z,100610.88
2023-03-05T00:31:55.797Z,100610.81
2023-03-05T00:34:58.581Z,100599.16
2023-03-05T00:38:01.918Z,100609.03
2023-03-05T00:41:06.070Z,100597.34
2023-03-05T00:44:22.776Z,100592.91
2023-03-05T00:47:25.510Z,100607.19
2023-03-05T00:50:28.697Z,100600.91
2023-03-05T00:53:34.668Z,100591.91
2023-03-05T00:56:38.720Z,100595.47
2023-03-05T00:59:42.352Z,100590.13
2023-03-05T01:02:45.031Z,100596.31
2023-03-05T01:05:47.882Z,100592.78
2023-03-05T01:08:50.578Z,100592.78
2023-03-05T01:11:55.593Z,100587.41
2023-03-05T01:14:58.341Z,100582.88
2023-03-05T01:18:03.320Z,100576.69
2023-03-05T01:21:06.790Z,100573.91
2023-03-05T01:24:11.401Z,100570.34
2023-03-05T01:27:15.490Z,100565.00
2023-03-05T01:30:18.517Z,100558.75
2023-03-05T01:33:23.820Z,100560.53
2023-03-05T01:36:26.633Z,100556.88
2023-03-05T01:39:29.332Z,100556.09
2023-03-05T01:42:33.396Z,100553.41
2023-03-05T01:45:36.210Z,100557.91
2023-03-05T01:48:47.241Z,100566.00
2023-03-05T01:51:55.066Z,100553.53
2023-03-05T01:55:03.167Z,100542.91
2023-03-05T01:58:11.069Z,100539.34
2023-03-05T02:01:17.105Z,100543.72
2023-03-05T02:04:20.907Z,100535.88
2023-03-05T02:07:24.372Z,100544.72
2023-03-05T02:10:40.848Z,100541.25
2023-03-05T02:13:44.983Z,100543.03
2023-03-05T02:16:49.886Z,100535.88
2023-03-05T02:19:57.818Z,100529.59
2023-03-05T02:23:02.470Z,100530.56
2023-03-05T02:26:06.693Z,100525.25
2023-03-05T02:29:11.661Z,100530.63
2023-03-05T02:32:15.383Z,100529.75
2023-03-05T02:35:18.375Z,100526.22
2023-03-05T02:38:23.684Z,100511.97
2023-03-05T02:41:29.749Z,100509.31
2023-03-05T02:44:39.028Z,100512.00
2023-03-05T02:47:44.849Z,100496.06
2023-03-05T02:50:48.439Z,100512.06
2023-03-05T02:53:52.514Z,100498.66
2023-03-05T02:56:55.173Z,100500.41
2023-03-05T03:00:00.301Z,100504.84
2023-03-05T03:03:03.755Z,100492.38
2023-03-05T03:06:07.470Z,100500.41
2023-03-05T03:09:11.494Z,100504.00
2023-03-05T03:12:14.246Z,100505.88
2023-03-05T03:15:18.624Z,100499.66
2023-03-05T03:18:24.344Z,100491.59
2023-03-05T03:21:27.890Z,100493.06
2023-03-05T03:24:32.614Z,100494.25
2023-03-05T03:27:35.285Z,100485.28
2023-03-05T03:30:38.048Z,100483.50
2023-03-05T03:33:43.654Z,100478.13
2023-03-05T03:36:47.983Z,100477.22
2023-03-05T03:39:52.024Z,100476.94
2023-03-05T03:42:58.021Z,100471.88
2023-03-05T03:46:01.108Z,100469.19
2023-03-05T03:49:04.197Z,100472.81
2023-03-05T03:52:07.629Z,100463.84
2023-03-05T03:55:14.756Z,100459.41
2023-03-05T03:58:19.816Z,100466.53
2023-03-05T04:01:22.762Z,100457.63
2023-03-05T04:04:29.083Z,100458.53
2023-03-05T04:07:31.926Z,100464.88
2023-03-05T04:10:38.681Z,100451.47
2023-03-05T04:13:41.446Z,100451.50
2023-03-05T04:16:44.169Z,100450.63
2023-03-05T04:19:46.846Z,100446.16
2023-03-05T04:22:50.503Z,100444.34
2023-03-05T04:25:54.568Z,100438.09
2023-03-05T04:28:57.285Z,100438.09
2023-03-05T04:32:00.083Z,100433.66
2023-03-05T04:35:05.105Z,100425.59
2023-03-05T04:38:08.104Z,100430.97
2023-03-05T04:41:12.121Z,100427.34
2023-03-05T04:44:14.881Z,100429.22
2023-03-05T04:47:18.165Z,100425.69
2023-03-05T04:50:21.182Z,100425.69
2023-03-05T04:53:31.083Z,100423.84
2023-03-05T04:56:37.425Z,100422.13
2023-03-05T04:59:40.156Z,100422.16
2023-03-05T05:02:43.374Z,100425.88
2023-03-05T05:05:46.150Z,100423.31
2023-03-05T05:08:48.858Z,100421.44
2023-03-05T05:11:53.027Z,100416.19
2023-03-05T05:14:55.722Z,100407.25
2023-03-05T05:17:58.404Z,100420.66
2023-03-05T05:21:02.064Z,100416.16
2023-03-05T05:24:06.956Z,100416.06
2023-03-05T05:27:11.487Z,100423.22
2023-03-05T05:30:14.565Z,100409.88
2023-03-05T05:33:17.289Z,100417.09
2023-03-05T05:36:22.242Z,100406.38
2023-03-05T05:39:25.671Z,100417.13
2023-03-05T05:42:30.021Z,100410.03
2023-03-05T05:45:33.209Z,100409.19
2023-03-05T05:48:37.495Z,100408.25
2023-03-05T05:51:40.241Z,100407.38
2023-03-05T05:54:46.746Z,100402.88
2023-03-05T05:57:50.810Z,100401.88
2023-03-05T06:00:53.855Z,100399.31
2023-03-05T06:03:58.069Z,100393.97
2023-03-05T06:07:02.176Z,100409.19
2023-03-05T06:10:08.132Z,100409.09
2023-03-05T06:13:12.278Z,100410.06
2023-03-05T06:16:23.841Z,100404.13
2023-03-05T06:19:26.927Z,100419.06
2023-03-05T06:22:29.623Z,100412.78
2023-03-05T06:25:32.338Z,100415.44
2023-03-05T06:28:39.563Z,100392.56
2023-03-05T06:31:42.274Z,100414.13
2023-03-05T06:34:44.976Z,100415.69
2023-03-05T06:37:47.799Z,100419.47
2023-03-05T06:40:50.604Z,100419.09
2023-03-05T06:43:55.612Z,100420.06
2023-03-05T06:46:58.312Z,100425.50
2023-03-05T06:50:01.013Z,100414.75
2023-03-05T06:53:09.946Z,100411.19
2023-03-05T06:56:20.487Z,100413.88
2023-03-05T06:59:24.585Z,100417.44
2023-03-05T07:02:27.411Z,100420.25
2023-03-05T07:05:30.158Z,100417.53
2023-03-05T07:08:33.631Z,100406.63
2023-03-05T07:11:36.595Z,100414.72
2023-03-05T07:14:43.497Z,100410.13
2023-03-05T07:17:46.149Z,100404.69
2023-03-05T07:20:48.889Z,100409.97
2023-03-05T07:23:53.844Z,100408.97
2023-03-05T07:26:57.138Z,100400.81
2023-03-05T07:30:01.336Z,100405.13
2023-03-05T07:33:04.156Z,100402.41
2023-03-05T07:36:09.078Z,100399.69
2023-03-05T07:39:12.878Z,100397.78
2023-03-05T07:42:15.597Z,100393.25
2023-03-05T07:45:19.884Z,100405.66
2023-03-05T07:48:22.621Z,100394.72
2023-03-05T07:51:27.206Z,100393.63
2023-03-05T07:54:29.892Z,100396.06
2023-03-05T07:57:32.595Z,100384.03
2023-03-05T08:00:36.685Z,100380.03
2023-03-05T08:03:41.639Z,100379.66
2023-03-05T08:06:44.385Z,100378.47
2023-03-05T08:09:47.046Z,100369.16
2023-03-05T08:12:49.704Z,100370.69
2023-03-05T08:15:53.794Z,100367.56
2023-03-05T08:18:57.477Z,100358.59
2023-03-05T08:22:00.164Z,100364.81
2023-03-05T08:25:06.190Z,100360.41
2023-03-05T08:28:08.920Z,100354.22
2023-03-05T08:31:13.574Z,100360.38
2023-03-05T08:34:16.997Z,100354.94
2023-03-05T08:37:19.645Z,100353.19
2023-03-05T08:40:25.156Z,100348.66
2023-03-05T08:43:28.072Z,100352.25
2023-03-05T08:46:32.184Z,100338.72
2023-03-05T08:49:34.931Z,100345.78
2023-03-05T08:52:37.692Z,100352.78
2023-03-05T08:55:40.351Z,100350.03
2023-03-05T08:58:43.569Z,100350.88
2023-03-05T09:01:47.890Z,100334.00
2023-03-05T09:04:50.669Z,100342.53
2023-03-05T09:07:53.361Z,100343.00
2023-03-05T09:10:56.604Z,100337.63
2023-03-05T09:13:59.308Z,100341.84
2023-03-05T09:17:03.641Z,100323.88
2023-03-05T09:20:07.879Z,100337.88
2023-03-05T09:23:10.608Z,100321.69
2023-03-05T09:26:13.745Z,100329.53
2023-03-05T09:29:16.426Z,100318.47
2023-03-05T09:32:20.484Z,100318.84
2023-03-05T09:35:23.328Z,100311.81
2023-03-05T09:38:31.388Z,100316.63
2023-03-05T09:41:46.128Z,100307.94
2023-03-05T09:44:58.224Z,100307.16
2023-03-05T09:48:12.580Z,100310.78
2023-03-05T09:51:35.828Z,100315.34
2023-03-05T09:54:48.964Z,100313.94
2023-03-05T09:57:57.250Z,100311.03
2023-03-05T10:01:04.836Z,100307.84
2023-03-05T10:04:13.790Z,100308.66
2023-03-05T10:07:22.047Z,100294.81
2023-03-05T10:10:28.465Z,100303.16
2023-03-05T10:13:34.204Z,100298.78
2023-03-05T10:16:58.702Z,100299.63
2023-03-05T10:20:29.248Z,100297.78
2023-03-05T10:23:39.583Z,100292.78
2023-03-05T10:26:55.824Z,100291.19
2023-03-05T10:30:06.974Z,100292.56
2023-03-05T10:33:19.067Z,100288.41
2023-03-05T10:36:45.831Z,100276.59
2023-03-05T10:40:01.925Z,100270.19
2023-03-05T10:43:15.141Z,100270.00
2023-03-05T10:46:19.968Z,100267.41
2023-03-05T10:49:28.086Z,100255.84
2023-03-05T10:52:36.325Z,100260.38
2023-03-05T10:55:39.022Z,100265.47
2023-03-05T10:58:41.716Z,100262.53
2023-03-05T11:02:03.692Z,100259.19
2023-03-05T11:05:06.503Z,100257.06
2023-03-05T11:08:34.649Z,100231.94
2023-03-05T11:11:37.374Z,100244.59
2023-03-05T11:14:42.008Z,100242.28
2023-03-05T11:17:48.277Z,100230.38
2023-03-05T11:20:51.493Z,100221.09
2023-03-05T11:24:14.875Z,100230.28
2023-03-05T11:27:30.888Z,100218.50
2023-03-05T11:30:35.669Z,100195.38
2023-03-05T11:33:38.937Z,100183.41
2023-03-05T11:36:43.275Z,100174.84
2023-03-05T11:39:47.832Z,100186.25
2023-03-05T11:42:56.679Z,100185.03
2023-03-05T11:46:03.645Z,100173.84
2023-03-05T11:49:08.010Z,100146.31
2023-03-05T11:52:17.158Z,100164.81
2023-03-05T11:55:26.832Z,100156.56
2023-03-05T11:58:33.814Z,100156.25
2023-03-05T12:01:43.520Z,100145.13
2023-03-05T12:04:47.995Z,100139.78
2023-03-05T12:07:54.165Z,100132.50
2023-03-05T12:11:00.501Z,100129.63
2023-03-05T12:14:07.981Z,100128.09
2023-03-05T12:17:19.838Z,100125.44
2023-03-05T12:20:34.445Z,100123.69
2023-03-05T12:23:49.034Z,100113.91
2023-03-05T12:27:07.069Z,100095.09
2023-03-05T12:30:56.329Z,100111.25
2023-03-05T12:33:59.524Z,100098.25
2023-03-05T12:37:02.317Z,100092.19
2023-03-05T12:40:21.779Z,100088.53
2023-03-05T12:43:33.540Z,100081.75
2023-03-05T12:46:38.098Z,100085.28
2023-03-05T12:49:41.522Z,100078.22
2023-03-05T12:52:47.187Z,100073.72
2023-03-05T12:56:00.197Z,100074.59
2023-03-05T12:59:05.582Z,100071.34
2023-03-05T13:02:21.783Z,100062.81
2023-03-05T13:05:28.144Z,100070.34
2023-03-05T13:08:32.626Z,100053.50
2023-03-05T13:11:39.213Z,100056.66
2023-03-05T13:14:44.636Z,100039.25
2023-03-05T13:17:55.415Z,100054.59
2023-03-05T13:21:04.428Z,100052.00
2023-03-05T13:24:18.391Z,100044.72
2023-03-05T13:27:23.183Z,100051.91
2023-03-05T13:30:29.411Z,100038.41
2023-03-05T13:33:34.710Z,100042.47
2023-03-05T13:36:39.232Z,100033.00
2023-03-05T13:39:45.515Z,100040.13
2023-03-05T13:42:48.395Z,100029.53
2023-03-05T13:45:57.997Z,100027.91
2023-03-05T13:49:19.488Z,100033.50
2023-03-05T13:52:26.207Z,100024.25
2023-03-05T13:55:29.359Z,100018.31
2023-03-05T13:58:50.803Z,100016.06
2023-03-05T14:01:56.031Z,100013.81
2023-03-05T14:04:59.787Z,100012.91
2023-03-05T14:08:03.617Z,100005.91
2023-03-05T14:11:14.667Z,100004.28
2023-03-05T14:14:19.146Z,100004.28
2023-03-05T14:17:24.837Z,100001.88
2023-03-05T14:20:29.427Z,100001.25
2023-03-05T14:23:43.000Z,100000.75
2023-03-05T14:26:50.643Z,99993.63
2023-03-05T14:29:53.672Z,99990.84
2023-03-05T14:33:00.249Z,99986.13
2023-03-05T14:36:05.151Z,99974.88
2023-03-05T14:39:08.535Z,99977.56
2023-03-05T14:42:25.729Z,99963.81
2023-03-05T14:45:30.350Z,99961.69
2023-03-05T14:48:37.507Z,99952.44
2023-03-05T14:51:43.388Z,99946.88
2023-03-05T14:54:46.578Z,99952.41
2023-03-05T14:57:51.723Z,99937.41
2023-03-05T15:00:56.851Z,99935.38
2023-03-05T15:04:02.185Z,99937.63
2023-03-05T15:07:05.194Z,99937.16
2023-03-05T15:10:09.232Z,99941.19
2023-03-05T15:13:14.299Z,99936.31
2023-03-05T15:16:19.028Z,99936.31
2023-03-05T15:19:23.089Z,99928.28
2023-03-05T15:22:25.789Z,99926.00
2023-03-05T15:25:30.536Z,99919.59
2023-03-05T15:28:35.148Z,99918.72
2023-03-05T15:31:40.369Z,99906.09
2023-03-05T15:34:44.514Z,99908.78
2023-03-05T15:37:47.258Z,99900.59
2023-03-05T15:40:50.870Z,99894.63
2023-03-05T15:43:53.740Z,99893.91
2023-03-05T15:46:57.687Z,99897.34
2023-03-05T15:50:11.190Z,99885.69
2023-03-05T15:53:17.929Z,99874.66
2023-03-05T15:56:20.874Z,99876.66
2023-03-05T15:59:26.668Z,99864.91
2023-03-05T16:02:33.216Z,99866.69
2023-03-05T16:05:38.667Z,99866.53
2023-03-05T16:08:43.799Z,99868.16
2023-03-05T16:11:49.176Z,99866.41
2023-03-05T16:14:52.207Z,99862.91
2023-03-05T16:17:58.192Z,99864.78
2023-03-05T16:21:03.343Z,99855.75
2023-03-05T16:24:06.523Z,99858.56
2023-03-05T16:27:09.224Z,99863.19
2023-03-05T16:30:14.914Z,99851.06
2023-03-05T16:33:17.574Z,99849.19
2023-03-05T16:36:26.335Z,99842.16
2023-03-05T16:39:29.033Z,99842.28
2023-03-05T16:42:31.809Z,99844.25
2023-03-05T16:45:34.999Z,99835.38
2023-03-05T16:48:37.770Z,99835.47
2023-03-05T16:51:42.528Z,99837.34
2023-03-05T16:54:45.521Z,99829.41
2023-03-05T16:57:48.621Z,99830.25
2023-03-05T17:00:51.452Z,99830.44
2023-03-05T17:04:08.205Z,99827.78
2023-03-05T17:07:12.324Z,99827.97
2023-03-05T17:10:15.392Z,99830.00
2023-03-05T17:13:18.085Z,99834.72
2023-03-05T17:16:21.768Z,99835.78
2023-03-05T17:19:27.056Z,99839.38
2023-03-05T17:22:31.036Z,99835.78
2023-03-05T17:25:33.724Z,99847.56
2023-03-05T17:28:36.551Z,99849.53
2023-03-05T17:31:39.454Z,99854.03
2023-03-05T17:34:42.270Z,99852.31
2023-03-05T17:37:46.354Z,99854.22
2023-03-05T17:40:49.424Z,99853.38
2023-03-05T17:43:52.444Z,99853.47
2023-03-05T17:46:58.540Z,99843.72
2023-03-05T17:50:02.409Z,99842.75
2023-03-05T17:53:06.750Z,99848.13
2023-03-05T17:56:13.271Z,99850.81
2023-03-05T17:59:16.565Z,99823.50
2023-03-05T18:02:19.319Z,99848.09
2023-03-05T18:05:25.543Z,99838.16
2023-03-05T18:08:33.445Z,99842.63
2023-03-05T18:11:36.418Z,99834.59
2023-03-05T18:14:41.302Z,99845.34
2023-03-05T18:17:44.441Z,99842.75
2023-03-05T18:20:48.643Z,99832.97
2023-03-05T18:23:53.296Z,99835.69
2023-03-05T18:26:56.527Z,99833.94
2023-03-05T18:29:59.474Z,99824.94
2023-03-05T18:33:02.238Z,99827.69
2023-03-05T18:36:05.308Z,99818.72
2023-03-05T18:39:12.538Z,99823.28
2023-03-05T18:42:18.576Z,99808.41
2023-03-05T18:45:23.114Z,99809.22
2023-03-05T18:48:25.900Z,99812.53
2023-03-05T18:51:30.224Z,99788.03
2023-03-05T18:54:34.337Z,99816.28
2023-03-05T18:57:37.072Z,99803.84
2023-03-05T19:00:40.906Z,99802.16
2023-03-05T19:03:46.588Z,99800.44
2023-03-05T19:06:49.280Z,99802.44
2023-03-05T19:09:59.076Z,99800.72
2023-03-05T19:13:15.754Z,99810.53
2023-03-05T19:16:20.680Z,99809.78
2023-03-05T19:19:24.647Z,99819.03
2023-03-05T19:22:29.454Z,99804.06
2023-03-05T19:25:35.609Z,99804.97
2023-03-05T19:28:39.175Z,99802.38
2023-03-05T19:31:42.805Z,99790.75
2023-03-05T19:34:45.901Z,99797.88
2023-03-05T19:37:49.011Z,99789.75
2023-03-05T19:40:53.159Z,99798.69
2023-03-05T19:43:58.891Z,99796.94
2023-03-05T19:47:02.436Z,99790.75
2023-03-05T19:50:09.421Z,99793.47
2023-03-05T19:53:12.190Z,99787.19
2023-03-05T19:56:17.210Z,99778.25
2023-03-05T19:59:21.164Z,99789.00
2023-03-05T20:02:23.951Z,99785.47
2023-03-05T20:05:26.676Z,99769.31
2023-03-05T20:08:29.327Z,99767.72
2023-03-05T20:11:33.775Z,99770.44
2023-03-05T20:14:43.668Z,99766.13
2023-03-05T20:17:47.060Z,99767.16
2023-03-05T20:20:53.379Z,99767.25
2023-03-05T20:23:58.552Z,99764.56
2023-03-05T20:27:08.214Z,99757.56
2023-03-05T20:30:26.930Z,99763.03
2023-03-05T20:33:30.015Z,99760.47
2023-03-05T20:36:35.573Z,99762.31
2023-03-05T20:39:38.228Z,99763.22
2023-03-05T20:42:42.364Z,99763.28
2023-03-05T20:45:51.036Z,99764.16
2023-03-05T20:52:21.445Z,99749.06
2023-03-05T20:55:27.603Z,99747.28
2023-03-05T20:58:35.028Z,99741.94
2023-03-05T21:01:39.555Z,99747.28
2023-03-05T21:04:42.320Z,99748.34
2023-03-05T21:07:45.103Z,99751.00
2023-03-05T21:10:48.126Z,99742.00
2023-03-05T21:13:54.772Z,99731.38
2023-03-05T21:16:57.477Z,99734.88
2023-03-05T21:20:00.161Z,99728.78
2023-03-05T21:23:03.887Z,99726.19
2023-03-05T21:26:07.312Z,99724.44
2023-03-05T21:29:11.949Z,99721.88
2023-03-05T21:32:15.334Z,99720.19
2023-03-05T21:35:20.321Z,99715.72
2023-03-05T21:38:24.701Z,99715.88
2023-03-05T21:41:31.071Z,99697.16
2023-03-05T21:44:35.259Z,99692.09
2023-03-05T21:47:41.412Z,99698.22
2023-03-05T21:50:46.564Z,99698.31
2023-03-05T21:53:56.455Z,99692.13
2023-03-05T21:57:05.579Z,99695.81
2023-03-05T22:00:11.335Z,99686.84
2023-03-05T22:03:16.258Z,99686.84
2023-03-05T22:06:20.496Z,99685.00
2023-03-05T22:09:25.119Z,99683.31
2023-03-05T22:12:43.697Z,99677.16
2023-03-05T22:15:49.177Z,99666.44
2023-03-05T22:18:52.332Z,99671.84
2023-03-05T22:21:55.033Z,99672.78
2023-03-05T22:25:02.304Z,99657.50
2023-03-05T22:28:05.903Z,99648.53
2023-03-05T22:31:10.530Z,99642.44
2023-03-05T22:34:14.222Z,99642.44
2023-03-05T22:37:20.544Z,99635.34
2023-03-05T22:40:37.882Z,99630.25
2023-03-05T22:43:41.643Z,99631.09
2023-03-05T22:46:45.697Z,99632.03
2023-03-05T22:49:50.582Z,99624.88
2023-03-05T22:52:53.572Z,99623.97
2023-03-05T22:55:56.345Z,99615.88
2023-03-05T22:59:06.474Z,99615.88
2023-03-05T23:02:10.633Z,99612.31
2023-03-05T23:05:15.442Z,99600.66
2023-03-05T23:08:21.317Z,99600.56
2023-03-05T23:11:24.062Z,99605.09
2023-03-05T23:14:32.897Z,99602.53
2023-03-05T23:17:36.999Z,99594.56
2023-03-05T23:20:43.400Z,99577.06
2023-03-05T23:23:46.203Z,99582.13
2023-03-05T23:26:48.874Z,99579.50
2023-03-05T23:30:05.688Z,99577.69
2023-03-05T23:33:15.572Z,99580.50
2023-03-05T23:36:19.909Z,99574.22
2023-03-05T23:39:22.598Z,99570.59
2023-03-05T23:42:27.558Z,99574.22
2023-03-05T23:45:31.277Z,99572.44
2023-03-05T23:48:35.546Z,99558.31
2023-03-05T23:51:39.261Z,99567.22
2023-03-05T23:54:41.942Z,99563.78
2023-03-05T23:57:45.410Z,99558.41
